Impacts METAR Board
IDs:

KGWO - Greenwood/Leflore Ar, MS, US

Updated at: 0400 UTC 18 Oct 2018
Potential Impact None Slight Moderate High
Time 17/16Z 17/17Z 17/18Z 17/19Z 17/20Z 17/21Z 17/22Z 17/23Z 18/00Z 18/01Z 18/02Z 18/03Z 18/04Z
Temp 62 61 60 61 60 59 57 56 55 54
Dewpt 46 46 46 48 49 51 54 53 53 52
Altim 30.30 30.31 30.31 30.31 30.31 30.32 30.34 30.35 30.35 30.36
VIS 10 10 10 10 10 10 10 10 10 10
CIG 75 75 65 85 90 95 -- -- -- --
CoverOVCOVCOVCOVCOVCOVCSCTCLRCLRCLR
FltCatVFRVFRVFRVFRVFRVFRVFRVFRVFRVFR
WX--------------------
WDir20360302020500000
WSpd 6 5 9 9 6 3 0 0 0 0
WGst -- -- -- -- -- -- -- -- -- --
Raw hourly METARs



KGWO 171853Z AUTO 02006KT 10SM OVC075 17/08 A3030 RMK AO2 SLP260 T01670078
KGWO 171953Z AUTO 36005KT 10SM OVC075 16/08 A3031 RMK AO2 SLP263 T01610078
KGWO 172053Z AUTO 03009KT 10SM BKN065 OVC080 16/08 A3031 RMK AO2 SLP262 T01560078 56006
KGWO 172153Z AUTO 02009KT 10SM OVC085 16/09 A3031 RMK AO2 SLP264 T01610089
KGWO 172253Z AUTO 02006KT 10SM OVC090 16/09 A3031 RMK AO2 SLP263 T01560094
KGWO 172353Z AUTO 05003KT 10SM OVC095 15/11 A3032 RMK AO2 SLP267 T01500106 10172 20150 53005
KGWO 180053Z AUTO 00000KT 10SM SCT110 14/12 A3034 RMK AO2 SLP273 T01390122
KGWO 180153Z AUTO 00000KT 10SM CLR 13/12 A3035 RMK AO2 SLP278 T01330117
KGWO 180253Z AUTO 00000KT 10SM CLR 13/12 A3035 RMK AO2 SLP278 T01280117 51011
KGWO 180353Z AUTO 00000KT 10SM CLR 12/11 A3036 RMK AO2 SLP281 T01220111



Page loaded:  04:45 UTC  |   09:45 PM Pacific  |   10:45 PM Mountain  |   11:45 PM Central  |   12:45 AM Eastern

 

ADVISORIES

FORECASTS

FORECASTS

OBSERVATIONS

USER TOOLS

ABOUT US